createdAt,value
2018-09-06T00:00:50.523Z,99037.96
2018-09-06T00:03:21.170Z,99033.13
2018-09-06T00:05:51.777Z,99039.94
2018-09-06T00:08:22.550Z,99036.31
2018-09-06T00:10:54.097Z,99038.50
2018-09-06T00:13:24.708Z,99035.34
2018-09-06T00:15:55.297Z,99032.52
2018-09-06T00:18:26.006Z,99028.09
2018-09-06T00:20:56.795Z,99025.76
2018-09-06T00:23:27.084Z,99024.53
2018-09-06T00:25:57.485Z,99025.86
2018-09-06T00:28:27.896Z,99030.83
2018-09-06T00:30:58.337Z,99027.66
2018-09-06T00:33:28.877Z,99020.18
2018-09-06T00:35:59.738Z,99021.16
2018-09-06T00:38:30.351Z,98854.02
2018-09-06T00:41:00.637Z,99027.45
2018-09-06T00:43:31.267Z,99024.89
2018-09-06T00:46:03.307Z,99023.77
2018-09-06T00:48:33.699Z,99020.53
2018-09-06T00:51:04.295Z,99018.34
2018-09-06T00:53:35.170Z,99017.48
2018-09-06T00:56:06.195Z,99021.48
2018-09-06T00:58:36.574Z,99014.86
2018-09-06T01:01:07.042Z,99014.03
2018-09-06T01:03:41.468Z,99012.23
2018-09-06T01:06:12.030Z,99011.98
2018-09-06T01:08:42.619Z,99013.09
2018-09-06T01:11:13.290Z,99013.95
2018-09-06T01:13:44.209Z,99010.35
2018-09-06T01:16:14.837Z,99001.53
2018-09-06T01:18:45.415Z,99005.05
2018-09-06T01:21:15.968Z,99012.44
2018-09-06T01:23:46.265Z,99008.88
2018-09-06T01:26:16.896Z,99004.64
2018-09-06T01:28:47.464Z,99007.52
2018-09-06T01:31:19.027Z,99006.80
2018-09-06T01:33:49.569Z,99009.35
2018-09-06T01:36:25.223Z,99005.94
2018-09-06T01:38:55.583Z,99006.16
2018-09-06T01:41:26.119Z,99005.19
2018-09-06T01:43:56.674Z,99007.48
2018-09-06T01:46:27.614Z,98999.97
2018-09-06T01:48:58.696Z,98996.34
2018-09-06T01:51:29.304Z,98999.00
2018-09-06T01:54:00.041Z,99000.08
2018-09-06T01:56:31.267Z,98988.53
2018-09-06T01:59:01.857Z,98990.83
2018-09-06T02:01:33.484Z,98991.70
2018-09-06T02:04:04.404Z,98990.12
2018-09-06T02:06:34.971Z,98994.75
2018-09-06T02:09:08.529Z,98991.34
2018-09-06T02:11:40.867Z,98989.50
2018-09-06T02:14:11.481Z,98992.67
2018-09-06T02:16:42.970Z,98989.80
2018-09-06T02:19:13.662Z,98990.26
2018-09-06T02:21:45.644Z,98982.28
2018-09-06T02:24:16.267Z,98982.06
2018-09-06T02:26:47.164Z,98970.34
2018-09-06T02:29:17.763Z,98980.41
2018-09-06T02:31:48.399Z,98978.24
2018-09-06T02:34:19.351Z,98974.39
2018-09-06T02:36:49.914Z,98973.67
2018-09-06T02:39:20.558Z,98971.25
2018-09-06T02:41:51.128Z,98964.73
2018-09-06T02:44:21.888Z,98960.62
2018-09-06T02:46:52.478Z,98960.27
2018-09-06T02:49:28.344Z,98957.83
2018-09-06T02:51:58.609Z,98950.69
2018-09-06T02:54:29.186Z,98950.19
2018-09-06T02:56:59.475Z,98946.06
2018-09-06T02:59:30.832Z,98949.69
2018-09-06T03:02:01.505Z,98955.76
2018-09-06T03:04:32.452Z,98951.04
2018-09-06T03:07:03.188Z,98949.33
2018-09-06T03:09:33.772Z,98948.27
2018-09-06T03:12:06.599Z,98949.94
2018-09-06T03:14:36.926Z,98952.48
2018-09-06T03:17:07.531Z,98826.13
2018-09-06T03:19:38.399Z,98959.50
2018-09-06T03:22:09.289Z,98960.22
2018-09-06T03:24:39.823Z,98958.21
2018-09-06T03:27:10.736Z,98961.38
2018-09-06T03:29:41.000Z,98964.67
2018-09-06T03:32:12.397Z,98959.59
2018-09-06T03:34:43.460Z,98965.77
2018-09-06T03:37:13.980Z,98961.71
2018-09-06T03:39:48.195Z,98965.33
2018-09-06T03:42:18.948Z,98969.86
2018-09-06T03:44:49.333Z,98964.70
2018-09-06T03:47:19.903Z,98968.45
2018-09-06T03:49:50.201Z,98968.02
2018-09-06T03:52:20.741Z,98968.01
2018-09-06T03:54:51.348Z,98961.70
2018-09-06T03:57:21.893Z,98966.41
2018-09-06T03:59:52.540Z,98968.43
2018-09-06T04:02:23.269Z,98967.20
2018-09-06T04:04:53.580Z,98966.22
2018-09-06T04:07:30.407Z,98962.30
2018-09-06T04:10:01.579Z,98962.29
2018-09-06T04:12:41.680Z,98968.70
2018-09-06T04:15:15.510Z,98971.33
2018-09-06T04:17:46.249Z,98970.70
2018-09-06T04:20:17.160Z,98981.40
2018-09-06T04:22:51.272Z,98972.53
2018-09-06T04:25:21.815Z,98979.06
2018-09-06T04:27:52.373Z,98977.77
2018-09-06T04:30:22.960Z,98976.91
2018-09-06T04:32:53.624Z,98984.02
2018-09-06T04:35:24.050Z,98986.75
2018-09-06T04:37:55.687Z,98991.65
2018-09-06T04:40:26.336Z,98988.73
2018-09-06T04:42:56.960Z,98987.77
2018-09-06T04:45:27.262Z,98992.93
2018-09-06T04:47:57.880Z,98995.14
2018-09-06T04:50:28.554Z,98996.14
2018-09-06T04:52:58.805Z,99001.13
2018-09-06T04:55:29.287Z,99004.34
2018-09-06T04:58:00.140Z,99006.90
2018-09-06T05:00:31.737Z,99008.83
2018-09-06T05:03:02.457Z,99008.48
2018-09-06T05:05:32.833Z,99007.23
2018-09-06T05:08:03.474Z,99014.60
2018-09-06T05:10:34.156Z,99001.48
2018-09-06T05:13:04.730Z,99006.96
2018-09-06T05:15:35.476Z,99006.86
2018-09-06T05:18:07.176Z,99007.06
2018-09-06T05:20:37.884Z,99005.73
2018-09-06T05:23:08.204Z,99007.96
2018-09-06T05:25:38.768Z,99008.39
2018-09-06T05:28:09.400Z,99002.14
2018-09-06T05:30:40.297Z,99001.96
2018-09-06T05:33:10.726Z,98997.70
2018-09-06T05:35:41.263Z,99005.45
2018-09-06T05:38:11.555Z,99001.59
2018-09-06T05:40:42.190Z,99003.85
2018-09-06T05:43:12.707Z,99008.84
2018-09-06T05:45:43.975Z,99008.27
2018-09-06T05:48:14.476Z,99008.49
2018-09-06T05:50:45.160Z,99004.89
2018-09-06T05:53:15.692Z,98998.06
2018-09-06T05:55:46.636Z,98999.32
2018-09-06T05:58:17.410Z,99002.98
2018-09-06T06:00:49.365Z,99004.06
2018-09-06T06:03:20.102Z,98997.03
2018-09-06T06:05:50.454Z,98996.41
2018-09-06T06:08:32.024Z,98998.55
2018-09-06T06:11:02.461Z,98997.26
2018-09-06T06:13:33.054Z,98989.83
2018-09-06T06:16:03.745Z,98990.59
2018-09-06T06:18:34.248Z,98992.00
2018-09-06T06:21:05.129Z,98987.72
2018-09-06T06:23:35.747Z,98981.63
2018-09-06T06:26:06.990Z,98989.64
2018-09-06T06:28:37.404Z,98991.56
2018-09-06T06:31:07.965Z,98987.98
2018-09-06T06:33:38.409Z,98994.70
2018-09-06T06:36:08.703Z,98986.73
2018-09-06T06:38:39.229Z,98982.58
2018-09-06T06:41:10.241Z,98976.64
2018-09-06T06:43:41.076Z,98988.91
2018-09-06T06:46:11.591Z,98989.70
2018-09-06T06:48:42.126Z,98992.12
2018-09-06T06:51:12.768Z,98989.66
2018-09-06T06:53:44.348Z,98987.98
2018-09-06T06:56:14.882Z,98989.86
2018-09-06T06:58:45.392Z,98988.52
2018-09-06T07:01:15.975Z,98984.76
2018-09-06T07:03:46.505Z,98980.02
2018-09-06T07:06:16.980Z,98982.47
2018-09-06T07:08:47.195Z,98985.69
2018-09-06T07:11:17.736Z,98988.67
2018-09-06T07:13:48.249Z,98990.80
2018-09-06T07:16:18.921Z,98989.29
2018-09-06T07:18:49.256Z,98996.02
2018-09-06T07:21:19.892Z,98995.89
2018-09-06T07:23:50.415Z,98993.38
2018-09-06T07:26:20.941Z,98998.69
2018-09-06T07:28:51.203Z,98992.45
2018-09-06T07:31:22.004Z,98993.66
2018-09-06T07:33:52.976Z,98991.25
2018-09-06T07:36:23.909Z,98992.33
2018-09-06T07:38:54.204Z,98993.77
2018-09-06T07:41:24.494Z,98996.15
2018-09-06T07:43:59.050Z,98988.92
2018-09-06T07:46:29.340Z,98990.31
2018-09-06T07:48:59.587Z,99000.94
2018-09-06T07:51:31.832Z,98993.34
2018-09-06T07:54:02.531Z,98996.06
2018-09-06T07:56:33.208Z,98989.09
2018-09-06T07:59:03.764Z,98990.14
2018-09-06T08:01:34.432Z,98987.26
2018-09-06T08:04:05.014Z,98991.66
2018-09-06T08:06:35.352Z,98990.20
2018-09-06T08:09:09.195Z,98982.12
2018-09-06T08:11:40.089Z,98988.42
2018-09-06T08:14:10.639Z,98979.72
2018-09-06T08:16:41.244Z,98880.27
2018-09-06T08:19:12.527Z,98985.31
2018-09-06T08:21:43.417Z,98983.84
2018-09-06T08:24:14.242Z,98989.77
2018-09-06T08:26:46.141Z,98988.33
2018-09-06T08:29:16.865Z,98984.45
2018-09-06T08:31:47.086Z,98989.45
2018-09-06T08:34:17.694Z,98993.41
2018-09-06T08:36:47.988Z,98987.37
2018-09-06T08:39:18.372Z,98984.95
2018-09-06T08:41:48.880Z,98981.09
2018-09-06T08:44:19.556Z,98975.50
2018-09-06T08:46:50.158Z,98969.58
2018-09-06T08:49:20.693Z,98965.31
2018-09-06T08:51:50.985Z,98965.51
2018-09-06T08:54:21.389Z,98973.45
2018-09-06T08:56:51.953Z,98975.84
2018-09-06T08:59:22.641Z,98969.71
2018-09-06T09:01:53.177Z,98968.82
2018-09-06T09:04:24.146Z,98954.03
2018-09-06T09:06:55.269Z,98956.57
2018-09-06T09:09:25.551Z,98957.05
2018-09-06T09:11:57.417Z,98951.58
2018-09-06T09:14:27.943Z,98959.78
2018-09-06T09:16:58.728Z,98958.45
2018-09-06T09:19:30.982Z,98956.77
2018-09-06T09:22:04.496Z,98953.17
2018-09-06T09:24:35.232Z,98942.94
2018-09-06T09:27:06.528Z,98941.75
2018-09-06T09:29:36.872Z,98940.03
2018-09-06T09:32:07.820Z,98950.69
2018-09-06T09:34:38.084Z,98948.45
2018-09-06T09:37:09.644Z,98946.42
2018-09-06T09:39:40.372Z,98948.12
2018-09-06T09:42:10.967Z,98961.66
2018-09-06T09:44:41.599Z,98962.68
2018-09-06T09:49:41.837Z,98954.64
2018-09-06T09:52:12.324Z,98945.63
2018-09-06T09:54:42.912Z,98931.84
2018-09-06T09:57:13.236Z,98935.22
2018-09-06T09:59:43.835Z,98931.94
2018-09-06T10:02:19.396Z,98935.20
2018-09-06T10:04:56.467Z,98936.56
2018-09-06T10:07:32.312Z,98935.41
2018-09-06T10:10:02.831Z,98950.41
2018-09-06T10:12:38.615Z,98934.41
2018-09-06T10:15:14.833Z,98927.17
2018-09-06T10:17:45.792Z,98928.81
2018-09-06T10:20:16.303Z,98900.66
2018-09-06T10:22:48.192Z,98897.52
2018-09-06T10:25:18.684Z,98899.94
2018-09-06T10:27:49.322Z,98891.91
2018-09-06T10:30:21.323Z,98892.92
2018-09-06T10:32:52.332Z,98897.75
2018-09-06T10:35:22.896Z,98891.39
2018-09-06T10:37:53.951Z,98875.77
2018-09-06T10:40:25.115Z,98873.08
2018-09-06T10:42:56.144Z,98830.98
2018-09-06T10:45:26.923Z,98865.56
2018-09-06T10:47:57.869Z,98868.04
2018-09-06T10:50:29.343Z,98859.86
2018-09-06T10:52:59.848Z,98857.18
2018-09-06T10:55:31.219Z,98845.84
2018-09-06T10:58:02.156Z,98840.48
2018-09-06T11:00:32.948Z,98836.41
2018-09-06T11:03:03.696Z,98829.02
2018-09-06T11:05:33.948Z,98829.31
2018-09-06T11:08:04.365Z,98829.91
2018-09-06T11:10:34.744Z,98828.30
2018-09-06T11:13:05.015Z,98824.97
2018-09-06T11:15:35.540Z,98825.91
2018-09-06T11:18:05.833Z,98823.36
2018-09-06T11:20:36.580Z,98812.91
2018-09-06T11:23:06.883Z,98814.96
2018-09-06T11:25:37.561Z,98818.38
2018-09-06T11:28:08.804Z,98812.84
2018-09-06T11:30:39.497Z,98815.47
2018-09-06T11:33:09.973Z,98800.14
2018-09-06T11:35:40.515Z,98813.20
2018-09-06T11:38:10.818Z,98816.70
2018-09-06T11:40:41.463Z,98808.30
2018-09-06T11:43:11.759Z,98805.64
2018-09-06T11:45:42.319Z,98799.98
2018-09-06T11:48:12.728Z,98801.47
2018-09-06T11:50:43.043Z,98794.18
2018-09-06T11:53:13.372Z,98795.84
2018-09-06T11:55:44.352Z,98798.44
2018-09-06T11:58:14.597Z,98801.26
2018-09-06T12:00:45.699Z,98791.34
2018-09-06T12:03:16.286Z,98796.31
2018-09-06T12:05:46.538Z,98791.11
2018-09-06T12:08:31.640Z,98792.06
2018-09-06T12:11:02.195Z,98792.81
2018-09-06T12:13:32.725Z,98787.30
2018-09-06T12:16:03.308Z,98781.92
2018-09-06T12:18:33.551Z,98778.59
2018-09-06T12:21:03.847Z,98781.86
2018-09-06T12:23:34.376Z,98771.40
2018-09-06T12:26:04.916Z,98778.00
2018-09-06T12:28:35.425Z,98774.37
2018-09-06T12:31:06.632Z,98777.59
2018-09-06T12:33:37.210Z,98769.09
2018-09-06T12:36:08.271Z,98687.02
2018-09-06T12:38:39.397Z,98763.89
2018-09-06T12:41:10.624Z,98758.30
2018-09-06T12:43:41.189Z,98759.56
2018-09-06T12:46:12.231Z,98765.08
2018-09-06T12:48:43.256Z,98765.63
2018-09-06T12:51:13.813Z,98752.99
2018-09-06T12:53:44.867Z,98758.02
2018-09-06T12:56:15.404Z,98752.38
2018-09-06T12:58:46.936Z,98751.57
2018-09-06T13:01:17.205Z,98748.06
2018-09-06T13:03:47.479Z,98744.82
2018-09-06T13:06:18.087Z,98738.14
2018-09-06T13:08:48.819Z,98736.50
2018-09-06T13:11:19.489Z,98733.66
2018-09-06T13:13:50.071Z,98734.52
2018-09-06T13:16:20.960Z,98730.30
2018-09-06T13:18:51.276Z,98727.66
2018-09-06T13:21:21.939Z,98723.55
2018-09-06T13:23:52.487Z,98728.44
2018-09-06T13:26:23.089Z,98729.53
2018-09-06T13:28:53.875Z,98729.81
2018-09-06T13:31:24.509Z,98722.93
2018-09-06T13:33:55.806Z,98713.32
2018-09-06T13:36:26.326Z,98721.38
2018-09-06T13:38:56.994Z,98717.83
2018-09-06T13:41:27.528Z,98709.59
2018-09-06T13:43:57.784Z,98706.70
2018-09-06T13:46:28.305Z,98708.34
2018-09-06T13:48:59.598Z,98708.02
2018-09-06T13:51:29.887Z,98707.59
2018-09-06T13:54:00.392Z,98699.00
2018-09-06T13:56:32.486Z,98698.21
2018-09-06T13:59:02.878Z,98694.17
2018-09-06T14:01:33.501Z,98689.70
2018-09-06T14:04:03.837Z,98679.83
2018-09-06T14:06:34.122Z,98684.95
2018-09-06T14:09:05.144Z,98684.04
2018-09-06T14:11:36.842Z,98679.33
2018-09-06T14:14:07.250Z,98673.45
2018-09-06T14:16:37.659Z,98669.09
2018-09-06T14:19:08.414Z,98668.88
2018-09-06T14:21:40.138Z,98666.50
2018-09-06T14:24:10.570Z,98660.16
2018-09-06T14:26:41.252Z,98658.14
2018-09-06T14:29:11.895Z,98653.42
2018-09-06T14:31:42.432Z,98653.27
2018-09-06T14:34:13.035Z,98650.59
2018-09-06T14:36:43.342Z,98657.03
2018-09-06T14:39:14.233Z,98655.47
2018-09-06T14:41:44.801Z,98639.34
2018-09-06T14:44:15.063Z,98640.38
2018-09-06T14:46:45.359Z,98644.95
2018-09-06T14:49:15.924Z,98646.05
2018-09-06T14:51:46.484Z,98646.64
2018-09-06T14:54:16.898Z,98650.08
2018-09-06T14:56:47.314Z,98644.31
2018-09-06T14:59:17.968Z,98642.78
2018-09-06T15:01:48.565Z,98626.48
2018-09-06T15:04:19.123Z,98641.52
2018-09-06T15:06:49.690Z,98636.98
2018-09-06T15:09:20.263Z,98632.59
2018-09-06T15:11:51.286Z,98636.07
2018-09-06T15:14:21.616Z,98632.25
2018-09-06T15:16:52.139Z,98638.23
2018-09-06T15:19:22.486Z,98635.08
2018-09-06T15:21:53.159Z,98640.73
2018-09-06T15:24:23.805Z,98637.65
2018-09-06T15:26:54.363Z,98634.44
2018-09-06T15:29:25.629Z,98628.91
2018-09-06T15:31:56.238Z,98624.45
2018-09-06T15:34:26.830Z,98626.22
2018-09-06T15:36:57.625Z,98625.80
2018-09-06T15:39:28.171Z,98624.62
2018-09-06T15:42:00.232Z,98627.89
2018-09-06T15:44:30.541Z,98617.83
2018-09-06T15:47:01.107Z,98618.54
2018-09-06T15:49:31.463Z,98615.34
2018-09-06T15:52:03.038Z,98613.17
2018-09-06T15:54:33.277Z,98611.66
2018-09-06T15:57:03.844Z,98607.64
2018-09-06T15:59:34.391Z,98289.01
2018-09-06T16:02:05.318Z,98602.22
2018-09-06T16:04:35.612Z,98600.14
2018-09-06T16:07:05.861Z,98593.06
2018-09-06T16:09:36.193Z,98597.50
2018-09-06T16:12:06.924Z,98600.66
2018-09-06T16:14:37.764Z,98605.96
2018-09-06T16:17:08.689Z,98602.56
2018-09-06T16:19:39.163Z,98598.86
2018-09-06T16:22:09.835Z,98590.26
2018-09-06T16:24:40.222Z,98598.05
2018-09-06T16:27:10.608Z,98594.02
2018-09-06T16:29:41.482Z,98590.72
2018-09-06T16:32:12.096Z,98599.39
2018-09-06T16:34:42.720Z,98592.58
2018-09-06T16:37:13.075Z,98584.82
2018-09-06T16:39:44.314Z,98600.67
2018-09-06T16:42:14.860Z,98610.01
2018-09-06T16:44:46.388Z,98604.73
2018-09-06T16:47:16.913Z,98606.61
2018-09-06T16:49:47.420Z,98607.38
2018-09-06T16:52:17.994Z,98602.38
2018-09-06T16:54:48.310Z,98611.42
2018-09-06T16:57:18.855Z,98612.41
2018-09-06T16:59:49.471Z,98608.14
2018-09-06T17:02:20.073Z,98608.14
2018-09-06T17:04:50.649Z,98606.75
2018-09-06T17:07:20.956Z,98598.81
2018-09-06T17:09:51.540Z,98611.03
2018-09-06T17:12:21.753Z,98608.73
2018-09-06T17:14:52.319Z,98613.15
2018-09-06T17:17:22.867Z,98609.84
2018-09-06T17:19:53.474Z,98611.33
2018-09-06T17:22:24.170Z,98608.91
2018-09-06T17:24:54.712Z,98614.63
2018-09-06T17:27:25.377Z,98607.06
2018-09-06T17:29:56.935Z,98612.83
2018-09-06T17:32:27.556Z,98615.05
2018-09-06T17:34:58.244Z,98617.76
2018-09-06T17:37:28.783Z,98620.28
2018-09-06T17:39:59.213Z,98622.66
2018-09-06T17:42:31.052Z,98623.55
2018-09-06T17:45:01.807Z,98619.63
2018-09-06T17:47:45.769Z,98611.91
2018-09-06T17:50:16.556Z,98622.54
2018-09-06T17:52:47.087Z,98618.81
2018-09-06T17:57:47.184Z,98628.19
2018-09-06T18:00:17.818Z,98627.37
2018-09-06T18:02:48.366Z,98628.49
2018-09-06T18:05:18.972Z,98631.48
2018-09-06T18:07:49.200Z,98631.92
2018-09-06T18:10:19.831Z,98638.60
2018-09-06T18:12:50.451Z,98634.20
2018-09-06T18:15:20.967Z,98623.23
2018-09-06T18:17:52.127Z,98624.09
2018-09-06T18:20:23.172Z,98632.44
2018-09-06T18:22:53.464Z,98632.33
2018-09-06T18:25:24.351Z,98633.97
2018-09-06T18:27:54.623Z,98629.94
2018-09-06T18:30:25.320Z,98632.36
2018-09-06T18:32:55.952Z,98638.55
2018-09-06T18:35:26.300Z,98645.00
2018-09-06T18:37:56.776Z,98638.67
2018-09-06T18:40:27.412Z,98638.66
2018-09-06T18:42:57.988Z,98643.59
2018-09-06T18:45:29.298Z,98640.94
2018-09-06T18:48:00.152Z,98643.63
2018-09-06T18:50:30.552Z,98642.81
2018-09-06T18:53:01.129Z,98646.17
2018-09-06T18:55:32.563Z,98643.52
2018-09-06T18:58:03.571Z,98640.93
2018-09-06T19:00:34.171Z,98650.44
2018-09-06T19:03:04.761Z,98647.25
2018-09-06T19:05:35.267Z,98646.41
2018-09-06T19:08:05.878Z,98653.34
2018-09-06T19:10:36.481Z,98661.91
2018-09-06T19:13:07.391Z,98657.94
2018-09-06T19:15:38.868Z,98659.59
2018-09-06T19:18:09.180Z,98657.70
2018-09-06T19:20:39.812Z,98655.35
2018-09-06T19:23:10.343Z,98653.38
2018-09-06T19:25:40.670Z,98649.59
2018-09-06T19:28:11.220Z,98657.48
2018-09-06T19:30:42.011Z,98650.78
2018-09-06T19:33:13.321Z,98659.79
2018-09-06T19:35:44.571Z,98653.88
2018-09-06T19:38:15.148Z,98655.91
2018-09-06T19:40:45.667Z,98656.91
2018-09-06T19:43:16.225Z,98652.05
2018-09-06T19:45:46.968Z,98648.61
2018-09-06T19:48:17.537Z,98650.70
2018-09-06T19:50:47.736Z,98646.78
2018-09-06T19:53:18.337Z,98651.53
2018-09-06T19:55:49.115Z,98648.03
2018-09-06T19:58:19.627Z,98650.23
2018-09-06T20:00:49.877Z,98648.23
2018-09-06T20:03:21.047Z,98649.33
2018-09-06T20:05:51.583Z,98643.09
2018-09-06T20:08:22.230Z,98645.66
2018-09-06T20:10:52.797Z,98648.06
2018-09-06T20:13:23.460Z,98651.45
2018-09-06T20:15:54.107Z,98652.85
2018-09-06T20:18:24.842Z,98653.28
2018-09-06T20:20:55.697Z,98650.40
2018-09-06T20:23:26.315Z,98651.75
2018-09-06T20:25:57.509Z,98647.30
2018-09-06T20:28:28.050Z,98650.76
2018-09-06T20:30:58.729Z,98650.40
2018-09-06T20:33:29.499Z,98654.67
2018-09-06T20:35:59.922Z,98659.61
2018-09-06T20:38:30.536Z,98654.84
2018-09-06T20:41:01.073Z,98655.81
2018-09-06T20:43:31.362Z,98657.39
2018-09-06T20:46:02.227Z,98663.77
2018-09-06T20:48:32.587Z,98656.23
2018-09-06T20:51:03.805Z,98660.19
2018-09-06T20:53:34.681Z,98659.25
2018-09-06T20:56:05.384Z,98662.13
2018-09-06T20:58:36.056Z,98653.98
2018-09-06T21:01:06.892Z,98656.11
2018-09-06T21:03:37.717Z,98646.16
2018-09-06T21:06:09.124Z,98642.63
2018-09-06T21:08:39.860Z,98643.23
2018-09-06T21:11:10.718Z,98637.15
2018-09-06T21:13:41.972Z,98639.27
2018-09-06T21:16:13.666Z,98640.48
2018-09-06T21:18:44.056Z,98636.51
2018-09-06T21:21:14.791Z,98645.52
2018-09-06T21:23:45.330Z,98641.06
2018-09-06T21:26:16.208Z,98643.80
2018-09-06T21:28:46.684Z,98640.48
2018-09-06T21:31:17.256Z,98639.20
2018-09-06T21:33:47.826Z,98634.92
2018-09-06T21:36:18.122Z,98634.45
2018-09-06T21:38:49.147Z,98625.31
2018-09-06T21:41:19.689Z,98629.41
2018-09-06T21:43:50.163Z,98627.28
2018-09-06T21:46:20.786Z,98620.69
2018-09-06T21:48:51.340Z,98620.16
2018-09-06T21:51:22.139Z,98623.98
2018-09-06T21:53:52.548Z,98625.19
2018-09-06T21:56:22.777Z,98618.81
2018-09-06T21:58:53.630Z,98615.80
2018-09-06T22:01:24.545Z,98614.05
2018-09-06T22:04:08.267Z,98619.94
2018-09-06T22:06:39.215Z,98617.38
2018-09-06T22:09:11.721Z,98616.56
2018-09-06T22:11:41.967Z,98625.44
2018-09-06T22:14:12.851Z,98616.02
2018-09-06T22:16:44.075Z,98619.13
2018-09-06T22:19:15.684Z,98608.20
2018-09-06T22:21:46.542Z,98615.30
2018-09-06T22:24:17.082Z,98621.45
2018-09-06T22:26:47.672Z,98616.94
2018-09-06T22:29:18.487Z,98620.84
2018-09-06T22:31:49.311Z,98613.28
2018-09-06T22:34:20.127Z,98614.44
2018-09-06T22:36:50.669Z,98612.34
2018-09-06T22:39:23.318Z,98615.17
2018-09-06T22:41:54.001Z,98608.59
2018-09-06T22:44:24.548Z,98612.97
2018-09-06T22:46:55.017Z,98603.30
2018-09-06T22:49:25.914Z,98606.42
2018-09-06T22:51:57.252Z,98605.81
2018-09-06T22:54:28.353Z,98604.25
2018-09-06T22:56:59.009Z,98604.69
2018-09-06T22:59:30.337Z,98601.11
2018-09-06T23:02:00.794Z,98585.59
2018-09-06T23:04:31.623Z,98598.77
2018-09-06T23:07:02.291Z,98603.27
2018-09-06T23:09:33.666Z,98602.88
2018-09-06T23:12:04.617Z,98596.34
2018-09-06T23:14:35.540Z,98603.08
2018-09-06T23:17:06.351Z,98598.46
2018-09-06T23:19:36.895Z,98602.22
2018-09-06T23:22:07.437Z,98597.80
2018-09-06T23:24:41.345Z,98593.72
2018-09-06T23:27:11.903Z,98591.55
2018-09-06T23:29:42.435Z,98592.63
2018-09-06T23:32:13.048Z,98588.65
2018-09-06T23:34:43.608Z,98592.76
2018-09-06T23:37:14.139Z,98598.25
2018-09-06T23:39:44.988Z,98514.37
2018-09-06T23:42:15.536Z,98595.64
2018-09-06T23:44:46.089Z,98591.64
2018-09-06T23:47:16.620Z,98593.17
2018-09-06T23:49:47.208Z,98594.47
2018-09-06T23:52:18.232Z,98594.38
2018-09-06T23:54:49.025Z,98595.41
2018-09-06T23:57:19.727Z,98587.59
2018-09-06T23:59:50.460Z,98591.87
